createdAt,value
2023-03-23T02:08:28.223Z,25.00
2023-03-23T02:16:28.253Z,28.83
2023-03-23T02:24:28.239Z,29.43
2023-03-23T02:32:28.260Z,27.17
2023-03-23T02:40:28.252Z,28.01
2023-03-23T02:48:28.261Z,29.28
2023-03-23T02:56:28.243Z,28.72
2023-03-23T03:04:28.529Z,27.48
2023-03-23T03:08:29.226Z,28.93
2023-03-23T03:12:29.211Z,28.51
2023-03-23T03:16:29.286Z,29.70
2023-03-23T03:20:29.374Z,27.95
2023-03-23T03:24:29.424Z,27.02
2023-03-23T03:28:29.430Z,27.91
2023-03-23T03:32:29.423Z,27.85
2023-03-23T03:36:29.440Z,29.91
2023-03-23T03:40:29.416Z,26.77
2023-03-23T03:44:29.423Z,29.18
2023-03-23T03:48:29.419Z,26.05
2023-03-23T03:52:29.458Z,28.80
2023-03-23T03:56:29.423Z,28.69
2023-03-23T04:00:29.432Z,26.78
2023-03-23T04:04:29.432Z,26.40
2023-03-23T04:08:29.473Z,28.09
2023-03-23T04:12:29.447Z,27.73
2023-03-23T04:16:29.447Z,30.48
2023-03-23T04:20:32.118Z,28.47
2023-03-23T04:24:56.054Z,28.74
2023-03-23T04:28:29.371Z,27.06
2023-03-23T04:32:29.338Z,30.86
2023-03-23T04:36:56.391Z,25.00
2023-03-23T04:40:29.330Z,28.38
2023-03-23T04:44:29.223Z,28.75
2023-03-23T04:48:29.187Z,25.00
2023-03-23T04:52:29.156Z,28.73
2023-03-23T04:56:29.141Z,27.17
2023-03-23T05:00:29.090Z,25.55
2023-03-23T05:04:29.045Z,26.56
2023-03-23T05:08:29.068Z,26.08
2023-03-23T05:12:28.991Z,29.27
2023-03-23T05:16:28.930Z,27.42
2023-03-23T05:20:28.896Z,30.59
2023-03-23T05:24:28.863Z,26.22
2023-03-23T05:28:28.852Z,28.33
2023-03-23T05:32:28.845Z,25.73
2023-03-23T05:36:28.753Z,25.00
2023-03-23T05:40:28.739Z,30.37
2023-03-23T05:44:28.744Z,27.36
2023-03-23T05:48:28.684Z,29.27
2023-03-23T05:52:28.653Z,28.25
2023-03-23T05:56:28.619Z,28.46
2023-03-23T06:00:28.605Z,28.99
2023-03-23T06:04:28.543Z,28.91
2023-03-23T06:08:28.581Z,27.23
2023-03-23T06:12:28.470Z,28.40
2023-03-23T06:16:28.608Z,26.54
2023-03-23T06:20:28.596Z,28.22
2023-03-23T06:24:28.586Z,31.09
2023-03-23T06:28:28.589Z,30.58
2023-03-23T06:32:28.622Z,31.42
2023-03-23T06:36:28.249Z,32.95
2023-03-23T06:40:28.596Z,49.51
2023-03-23T06:44:28.597Z,40.54
2023-03-23T06:48:30.119Z,50.38
2023-03-23T06:52:29.597Z,59.71
2023-03-23T06:56:28.607Z,70.07
2023-03-23T07:00:28.653Z,79.00
2023-03-23T07:04:28.445Z,80.28
2023-03-23T07:08:28.732Z,77.32
2023-03-23T07:12:28.639Z,79.14
2023-03-23T07:16:28.609Z,81.27
2023-03-23T07:20:29.635Z,80.81
2023-03-23T07:24:28.614Z,80.75
2023-03-23T07:28:28.619Z,81.04
2023-03-23T07:32:28.616Z,77.03
2023-03-23T07:36:28.644Z,77.99
2023-03-23T07:40:29.093Z,74.46
2023-03-23T07:44:29.179Z,75.75
2023-03-23T07:48:33.328Z,70.48
2023-03-23T07:52:29.650Z,71.90
2023-03-23T07:56:28.624Z,71.38
2023-03-23T08:00:28.575Z,73.61
2023-03-23T08:04:28.630Z,69.63
2023-03-23T08:08:28.657Z,66.04
2023-03-23T08:12:28.635Z,69.27
2023-03-23T08:16:28.632Z,72.00
2023-03-23T08:20:28.593Z,67.84
2023-03-23T08:24:28.686Z,67.67
2023-03-23T08:28:28.631Z,62.37
2023-03-23T08:32:29.138Z,64.96
2023-03-23T08:36:29.138Z,140.40
2023-03-23T08:40:29.170Z,145.92
2023-03-23T08:44:29.147Z,153.35
2023-03-23T08:48:29.147Z,156.38
2023-03-23T08:52:29.641Z,168.42
2023-03-23T08:56:29.730Z,177.82
2023-03-23T09:00:33.924Z,186.76
2023-03-23T09:04:30.148Z,197.08
2023-03-23T09:08:30.152Z,213.51
2023-03-23T09:12:30.081Z,223.81
2023-03-23T09:16:30.151Z,238.10
2023-03-23T09:20:30.273Z,248.32
2023-03-23T09:24:30.656Z,246.12
2023-03-23T09:28:30.720Z,247.98
2023-03-23T09:32:30.666Z,249.94
2023-03-23T09:36:30.680Z,247.52
2023-03-23T09:40:31.196Z,250.00
2023-03-23T09:44:31.218Z,249.79
2023-03-23T09:48:31.172Z,247.87
2023-03-23T09:52:31.183Z,249.40
2023-03-23T09:56:31.168Z,248.55
2023-03-23T10:00:31.264Z,248.26
2023-03-23T10:04:31.174Z,247.65
2023-03-23T10:08:30.923Z,249.48
2023-03-23T10:12:31.177Z,248.97
2023-03-23T10:16:31.219Z,247.14
2023-03-23T10:20:31.186Z,249.64
2023-03-23T10:24:31.683Z,249.05
2023-03-23T10:28:31.682Z,249.19
2023-03-23T10:32:31.224Z,253.97
2023-03-23T10:36:31.196Z,246.78
2023-03-23T10:40:34.481Z,249.80
2023-03-23T10:44:31.197Z,253.16
2023-03-23T10:48:31.227Z,245.35
2023-03-23T10:52:31.197Z,249.55
2023-03-23T10:56:30.945Z,245.13
2023-03-23T11:00:34.409Z,246.56
2023-03-23T11:04:31.226Z,251.33
2023-03-23T11:08:30.829Z,249.07
2023-03-23T11:12:31.210Z,247.67
2023-03-23T11:16:32.717Z,249.24
2023-03-23T11:20:31.232Z,245.15
2023-03-23T11:24:30.791Z,249.75
2023-03-23T11:28:30.712Z,248.75
2023-03-23T11:32:30.715Z,248.91
2023-03-23T11:36:30.753Z,242.85
2023-03-23T11:40:30.720Z,242.79
2023-03-23T11:44:30.576Z,243.77
2023-03-23T11:48:30.764Z,242.36
2023-03-23T11:52:30.761Z,239.13
2023-03-23T11:56:30.726Z,235.93
2023-03-23T12:00:30.793Z,233.81
2023-03-23T12:04:31.241Z,229.27
2023-03-23T12:08:31.254Z,226.52
2023-03-23T12:12:31.226Z,224.74
2023-03-23T12:16:31.281Z,222.50
2023-03-23T12:20:37.763Z,218.97
2023-03-23T12:24:31.273Z,216.92
2023-03-23T12:28:31.238Z,212.63
2023-03-23T12:32:31.240Z,210.11
2023-03-23T12:36:31.345Z,207.90
2023-03-23T12:40:31.264Z,206.06
2023-03-23T12:44:31.242Z,202.90
2023-03-23T12:48:31.026Z,200.75
2023-03-23T12:52:31.244Z,200.05
2023-03-23T12:56:31.286Z,197.77
2023-03-23T13:00:32.795Z,194.54
2023-03-23T13:04:31.253Z,192.57
2023-03-23T13:08:31.251Z,191.11
2023-03-23T13:12:31.289Z,188.08
2023-03-23T13:16:30.769Z,185.87
2023-03-23T13:20:30.757Z,184.67
2023-03-23T13:24:30.766Z,182.58
2023-03-23T13:28:31.290Z,180.16
2023-03-23T13:32:31.292Z,178.50
2023-03-23T13:36:31.298Z,179.13
2023-03-23T13:40:31.425Z,176.29
2023-03-23T13:44:31.897Z,174.46
2023-03-23T13:48:31.778Z,172.34
2023-03-23T13:52:32.505Z,171.06
2023-03-23T13:56:32.424Z,170.34
2023-03-23T14:00:31.881Z,170.19
2023-03-23T14:04:32.296Z,167.01
2023-03-23T14:08:31.779Z,166.27
2023-03-23T14:12:31.795Z,165.61
2023-03-23T14:16:31.902Z,162.63
2023-03-23T14:20:32.306Z,162.87
2023-03-23T14:24:32.783Z,160.22
2023-03-23T14:28:32.782Z,158.18
2023-03-23T14:32:32.804Z,158.54
2023-03-23T14:36:32.448Z,156.40
2023-03-23T14:40:32.786Z,154.11
2023-03-23T14:44:32.791Z,152.21
2023-03-23T14:48:32.341Z,150.92
2023-03-23T14:52:32.796Z,149.37
2023-03-23T14:56:32.791Z,148.87
2023-03-23T15:00:32.794Z,148.44
2023-03-23T15:04:32.325Z,146.74
2023-03-23T15:08:32.327Z,145.76
2023-03-23T15:12:32.209Z,144.52
2023-03-23T15:16:32.797Z,59.56
2023-03-23T15:20:32.859Z,99.77
2023-03-23T15:24:32.810Z,75.62
2023-03-23T15:28:32.776Z,76.62
2023-03-23T15:32:33.312Z,88.48
2023-03-23T15:36:33.360Z,96.44
2023-03-23T15:40:33.399Z,102.22
2023-03-23T15:44:33.821Z,105.30
2023-03-23T15:48:33.821Z,103.83
2023-03-23T15:52:34.350Z,107.39
2023-03-23T15:56:34.157Z,106.81
2023-03-23T16:00:34.327Z,110.40
2023-03-23T16:04:34.338Z,108.79
2023-03-23T16:08:34.377Z,108.71
2023-03-23T16:12:34.360Z,109.14
2023-03-23T16:16:34.026Z,109.48
2023-03-23T16:20:34.338Z,109.56
2023-03-23T16:24:34.177Z,110.73
2023-03-23T16:28:34.341Z,110.44
2023-03-23T16:36:34.691Z,110.42
2023-03-23T16:40:34.911Z,110.65
2023-03-23T16:44:35.080Z,109.91
2023-03-23T16:48:35.296Z,108.77
2023-03-23T16:52:35.501Z,110.20
2023-03-23T16:56:35.520Z,110.51
2023-03-23T17:00:35.422Z,110.41
2023-03-23T17:04:35.390Z,109.16
2023-03-23T17:08:35.349Z,108.43
2023-03-23T17:12:35.350Z,106.29
2023-03-23T17:16:35.346Z,105.76
2023-03-23T17:20:35.260Z,106.83
2023-03-23T17:24:35.254Z,107.48
2023-03-23T17:28:35.353Z,106.00
2023-03-23T17:32:35.186Z,106.92
2023-03-23T17:36:35.108Z,106.88
2023-03-23T17:40:35.107Z,104.09
2023-03-23T17:44:35.349Z,103.91
2023-03-23T17:48:35.360Z,104.90
2023-03-23T17:52:35.580Z,104.57
2023-03-23T17:56:35.634Z,102.76
2023-03-23T18:00:35.643Z,104.94
2023-03-23T18:04:35.650Z,105.64
2023-03-23T18:08:35.643Z,104.76
2023-03-23T18:12:35.665Z,105.77
2023-03-23T18:16:35.824Z,103.40
2023-03-23T18:20:35.808Z,103.36
2023-03-23T18:24:35.850Z,101.29
2023-03-23T18:28:35.845Z,101.83
2023-03-23T18:32:36.014Z,100.62
2023-03-23T18:36:36.131Z,102.06
2023-03-23T18:40:36.058Z,99.87
2023-03-23T18:44:36.073Z,98.65
2023-03-23T18:48:36.279Z,99.21
2023-03-23T18:52:36.309Z,97.14
2023-03-23T18:56:36.365Z,95.90
2023-03-23T19:00:36.382Z,94.94
2023-03-23T19:04:36.454Z,94.78
2023-03-23T19:08:36.503Z,94.41
2023-03-23T19:12:36.535Z,95.11
2023-03-23T19:16:36.570Z,93.19
2023-03-23T19:21:10.720Z,91.66
2023-03-23T19:24:36.636Z,93.50
2023-03-23T19:32:35.583Z,93.27
2023-03-23T19:36:36.923Z,92.27
2023-03-23T19:40:40.877Z,89.52
2023-03-23T19:44:36.463Z,89.07
2023-03-23T19:48:36.430Z,88.69
2023-03-23T19:52:36.856Z,88.12
2023-03-23T19:56:36.448Z,87.90
2023-03-23T20:00:36.316Z,86.16
2023-03-23T20:04:36.415Z,85.80
2023-03-23T20:08:36.266Z,86.04
2023-03-23T20:12:36.754Z,86.35
2023-03-23T20:16:36.366Z,84.39
2023-03-23T20:20:36.645Z,82.21
2023-03-23T20:24:38.066Z,83.55
2023-03-23T20:28:36.065Z,81.91
2023-03-23T20:32:36.039Z,80.69
2023-03-23T20:36:36.182Z,82.54
2023-03-23T20:40:35.988Z,80.66
2023-03-23T20:44:36.000Z,79.03
2023-03-23T20:48:35.887Z,78.78
2023-03-23T20:52:35.873Z,80.14
2023-03-23T20:56:35.860Z,78.78
2023-03-23T21:00:35.786Z,75.89
2023-03-23T21:04:35.742Z,75.96
2023-03-23T21:08:35.696Z,74.83
2023-03-23T21:12:35.689Z,77.13
2023-03-23T21:16:35.633Z,74.91
2023-03-23T21:20:35.589Z,73.42
2023-03-23T21:24:35.552Z,73.62
2023-03-23T21:28:35.556Z,72.69
2023-03-23T21:32:35.705Z,73.18
2023-03-23T21:36:35.711Z,72.55
2023-03-23T21:40:35.786Z,71.85
2023-03-23T21:44:35.915Z,70.40
2023-03-23T21:48:36.090Z,67.83
2023-03-23T21:52:36.056Z,67.84
2023-03-23T21:56:36.133Z,67.87
2023-03-23T22:00:36.246Z,67.72
2023-03-23T22:04:36.303Z,67.24
2023-03-23T22:08:36.304Z,65.91
2023-03-23T22:12:36.380Z,64.74
2023-03-23T22:16:36.581Z,63.98
2023-03-23T22:20:36.489Z,64.90
2023-03-23T22:24:36.542Z,63.67
2023-03-23T22:28:36.638Z,63.67
2023-03-23T22:32:36.870Z,61.47
2023-03-23T22:36:36.809Z,61.37
2023-03-23T22:40:36.921Z,61.88
2023-03-23T22:44:37.025Z,59.96
2023-03-23T22:48:37.138Z,59.46
2023-03-23T22:52:37.170Z,60.12
2023-03-23T22:56:37.398Z,58.03
2023-03-23T23:00:37.410Z,56.82
2023-03-23T23:04:37.591Z,58.85
2023-03-23T23:08:37.620Z,57.01
2023-03-23T23:12:37.668Z,55.56
2023-03-23T23:16:37.794Z,54.98
2023-03-23T23:20:37.871Z,55.33
2023-03-23T23:24:37.927Z,53.67
2023-03-23T23:28:38.078Z,53.54
2023-03-23T23:32:38.219Z,54.11
2023-03-23T23:36:38.337Z,53.88
2023-03-23T23:40:38.432Z,51.05
2023-03-23T23:44:38.591Z,50.30
2023-03-23T23:48:38.723Z,49.84
2023-03-23T23:52:38.858Z,48.80
2023-03-23T23:56:39.010Z,48.66
